createdAt,value
2019-02-08T00:00:20.057Z,3.90
2019-02-08T00:02:48.677Z,3.47
2019-02-08T00:05:17.304Z,3.73
2019-02-08T00:07:45.877Z,4.90
2019-02-08T00:10:14.469Z,3.93
2019-02-08T00:12:42.997Z,4.10
2019-02-08T00:15:11.570Z,4.60
2019-02-08T00:17:40.121Z,4.23
2019-02-08T00:20:08.998Z,4.70
2019-02-08T00:22:37.634Z,3.83
2019-02-08T00:25:06.455Z,4.10
2019-02-08T00:27:34.990Z,4.30
2019-02-08T00:30:03.581Z,4.37
2019-02-08T00:32:32.509Z,4.53
2019-02-08T00:35:01.057Z,3.40
2019-02-08T00:37:29.642Z,4.17
2019-02-08T00:39:58.190Z,3.70
2019-02-08T00:42:26.713Z,5.33
2019-02-08T00:44:55.257Z,3.60
2019-02-08T00:47:23.814Z,4.73
2019-02-08T00:49:52.730Z,3.43
2019-02-08T00:52:21.265Z,4.37
2019-02-08T00:54:49.823Z,3.57
2019-02-08T00:57:18.362Z,3.50
2019-02-08T00:59:46.913Z,3.20
2019-02-08T01:02:15.470Z,3.07
2019-02-08T01:04:44.086Z,3.93
2019-02-08T01:07:12.994Z,3.70
2019-02-08T01:09:41.541Z,3.70
2019-02-08T01:12:10.094Z,3.10
2019-02-08T01:14:38.657Z,3.13
2019-02-08T01:17:07.185Z,3.47
2019-02-08T01:19:35.750Z,2.77
2019-02-08T01:22:04.306Z,2.73
2019-02-08T01:24:33.319Z,2.80
2019-02-08T01:27:01.862Z,3.10
2019-02-08T01:29:30.429Z,3.10
2019-02-08T01:31:58.958Z,2.43
2019-02-08T01:34:27.507Z,2.73
2019-02-08T01:36:56.157Z,3.40
2019-02-08T01:39:24.695Z,3.07
2019-02-08T01:41:53.239Z,3.73
2019-02-08T01:44:21.805Z,3.37
2019-02-08T01:46:50.337Z,2.83
2019-02-08T01:49:18.877Z,2.90
2019-02-08T01:51:47.446Z,3.87
2019-02-08T01:54:16.017Z,3.73
2019-02-08T01:56:44.559Z,2.70
2019-02-08T01:59:13.106Z,2.97
2019-02-08T02:01:41.677Z,3.40
2019-02-08T02:04:10.228Z,2.60
2019-02-08T02:06:38.753Z,2.87
2019-02-08T02:09:07.695Z,3.20
2019-02-08T02:11:36.230Z,2.87
2019-02-08T02:14:04.843Z,3.27
2019-02-08T02:16:33.415Z,3.40
2019-02-08T02:19:01.947Z,2.90
2019-02-08T02:21:30.478Z,3.67
2019-02-08T02:23:59.249Z,3.87
2019-02-08T02:26:27.802Z,2.77
2019-02-08T02:28:56.334Z,3.77
2019-02-08T02:31:24.890Z,3.17
2019-02-08T02:33:53.434Z,3.67
2019-02-08T02:36:21.999Z,3.20
2019-02-08T02:38:50.596Z,2.43
2019-02-08T02:41:19.182Z,3.03
2019-02-08T02:43:47.722Z,3.63
2019-02-08T02:46:16.327Z,3.73
2019-02-08T02:48:44.869Z,2.90
2019-02-08T02:51:13.403Z,3.00
2019-02-08T02:53:41.975Z,3.00
2019-02-08T02:56:10.517Z,2.90
2019-02-08T02:58:39.053Z,2.70
2019-02-08T03:01:07.637Z,2.67
2019-02-08T03:03:36.221Z,2.70
2019-02-08T03:06:04.901Z,3.57
2019-02-08T03:08:33.450Z,2.57
2019-02-08T03:11:01.983Z,3.33
2019-02-08T03:13:30.546Z,2.80
2019-02-08T03:15:59.101Z,2.80
2019-02-08T03:18:27.629Z,3.60
2019-02-08T03:20:56.209Z,3.40
2019-02-08T03:23:24.756Z,2.73
2019-02-08T03:25:53.767Z,3.17
2019-02-08T03:28:22.326Z,2.53
2019-02-08T03:30:56.208Z,2.87
2019-02-08T03:33:24.752Z,3.50
2019-02-08T03:35:53.306Z,3.23
2019-02-08T03:38:21.832Z,3.37
2019-02-08T03:40:50.477Z,3.27
2019-02-08T03:43:19.107Z,3.37
2019-02-08T03:45:49.462Z,2.90
2019-02-08T03:48:18.037Z,3.07
2019-02-08T03:50:46.578Z,3.27
2019-02-08T03:53:15.142Z,2.87
2019-02-08T03:55:43.685Z,2.80
2019-02-08T03:58:12.225Z,3.77
2019-02-08T04:00:47.565Z,2.60
2019-02-08T04:03:16.117Z,3.03
2019-02-08T04:05:44.702Z,2.97
2019-02-08T04:08:13.327Z,2.70
2019-02-08T04:10:41.864Z,4.13
2019-02-08T04:13:10.398Z,2.97
2019-02-08T04:15:38.966Z,3.50
2019-02-08T04:18:07.518Z,3.40
2019-02-08T04:20:36.051Z,3.27
2019-02-08T04:23:04.614Z,3.20
2019-02-08T04:25:33.181Z,4.17
2019-02-08T04:28:01.790Z,3.47
2019-02-08T04:30:30.363Z,3.87
2019-02-08T04:32:58.902Z,3.00
2019-02-08T04:35:27.450Z,3.57
2019-02-08T04:37:55.994Z,4.20
2019-02-08T04:40:24.755Z,4.13
2019-02-08T04:42:53.321Z,4.13
2019-02-08T04:45:21.867Z,4.50
2019-02-08T04:47:50.482Z,4.13
2019-02-08T04:50:19.846Z,4.30
2019-02-08T04:52:48.412Z,4.00
2019-02-08T04:55:16.949Z,3.70
2019-02-08T04:57:45.505Z,3.60
2019-02-08T05:00:16.022Z,4.13
2019-02-08T05:02:44.543Z,3.00
2019-02-08T05:05:13.062Z,4.47
2019-02-08T05:07:41.610Z,3.77
2019-02-08T05:10:10.426Z,3.53
2019-02-08T05:12:38.964Z,4.03
2019-02-08T05:15:07.594Z,3.27
2019-02-08T05:17:36.190Z,5.43
2019-02-08T05:20:05.438Z,4.40
2019-02-08T05:22:33.998Z,3.97
2019-02-08T05:25:02.535Z,4.63
2019-02-08T05:27:31.074Z,4.43
2019-02-08T05:29:59.645Z,3.90
2019-02-08T05:32:28.170Z,5.20
2019-02-08T05:34:56.714Z,5.23
2019-02-08T05:37:25.289Z,3.87
2019-02-08T05:39:53.820Z,4.33
2019-02-08T05:42:22.356Z,4.37
2019-02-08T05:44:50.928Z,4.03
2019-02-08T05:47:19.499Z,4.63
2019-02-08T05:49:48.022Z,4.13
2019-02-08T05:52:16.620Z,4.43
2019-02-08T05:54:45.154Z,4.70
2019-02-08T05:57:13.693Z,4.03
2019-02-08T05:59:42.256Z,4.43
2019-02-08T06:02:10.795Z,3.97
2019-02-08T06:04:39.334Z,3.67
2019-02-08T06:07:07.906Z,4.33
2019-02-08T06:09:36.430Z,4.33
2019-02-08T06:12:04.986Z,4.50
2019-02-08T06:14:33.619Z,3.50
2019-02-08T06:17:02.146Z,3.93
2019-02-08T06:19:30.673Z,5.03
2019-02-08T06:21:59.285Z,4.23
2019-02-08T06:24:27.822Z,5.10
2019-02-08T06:26:56.367Z,4.40
2019-02-08T06:29:24.923Z,5.00
2019-02-08T06:31:53.465Z,4.77
2019-02-08T06:34:22.006Z,4.60
2019-02-08T06:36:50.574Z,4.77
2019-02-08T06:39:19.169Z,4.53
2019-02-08T06:41:47.740Z,4.80
2019-02-08T06:44:16.297Z,4.70
2019-02-08T06:46:44.835Z,4.67
2019-02-08T06:49:13.385Z,5.13
2019-02-08T06:51:41.934Z,4.93
2019-02-08T06:54:10.474Z,3.80
2019-02-08T06:57:07.016Z,5.67
2019-02-08T06:59:49.618Z,4.40
2019-02-08T07:02:43.311Z,5.03
2019-02-08T07:05:49.040Z,5.13
2019-02-08T07:08:37.525Z,5.90
2019-02-08T07:11:21.146Z,5.33
2019-02-08T07:14:02.529Z,5.83
2019-02-08T07:17:02.186Z,6.43
2019-02-08T07:19:46.796Z,6.27
2019-02-08T07:22:33.137Z,5.77
2019-02-08T07:25:18.752Z,6.03
2019-02-08T07:27:55.410Z,7.03
2019-02-08T07:30:48.098Z,6.70
2019-02-08T07:33:29.449Z,6.03
2019-02-08T07:36:08.293Z,5.20
2019-02-08T07:38:43.645Z,6.37
2019-02-08T07:41:29.605Z,6.37
2019-02-08T07:44:17.277Z,5.83
2019-02-08T07:47:10.811Z,6.67
2019-02-08T07:49:47.162Z,6.53
2019-02-08T07:52:26.135Z,6.57
2019-02-08T07:55:07.469Z,6.07
2019-02-08T07:57:53.911Z,5.57
2019-02-08T08:00:32.719Z,7.23
2019-02-08T08:03:26.524Z,7.43
2019-02-08T08:06:13.191Z,7.33
2019-02-08T08:09:00.810Z,5.73
2019-02-08T08:11:57.246Z,6.00
2019-02-08T08:14:44.959Z,7.27
2019-02-08T08:17:38.833Z,6.40
2019-02-08T08:20:18.733Z,6.87
2019-02-08T08:23:05.334Z,6.87
2019-02-08T08:25:52.974Z,7.20
2019-02-08T08:28:38.138Z,5.77
2019-02-08T08:31:16.900Z,6.70
2019-02-08T08:33:48.791Z,6.47
2019-02-08T08:36:36.631Z,6.60
2019-02-08T08:39:12.435Z,6.23
2019-02-08T08:41:54.498Z,7.17
2019-02-08T08:44:41.101Z,6.90
2019-02-08T08:47:14.490Z,6.63
2019-02-08T08:50:00.679Z,6.67
2019-02-08T08:52:54.393Z,6.77
2019-02-08T08:55:48.280Z,7.10
2019-02-08T08:58:24.426Z,6.17
2019-02-08T09:01:12.149Z,5.50
2019-02-08T09:04:06.170Z,6.67
2019-02-08T09:07:16.283Z,5.93
2019-02-08T09:10:00.465Z,5.47
2019-02-08T09:12:57.553Z,5.43
2019-02-08T09:15:44.106Z,6.17
2019-02-08T09:18:21.579Z,7.47
2019-02-08T09:21:09.383Z,5.60
2019-02-08T09:23:59.777Z,5.53
2019-02-08T09:26:44.029Z,5.63
2019-02-08T09:29:24.592Z,5.40
2019-02-08T09:32:03.262Z,5.57
2019-02-08T09:34:51.695Z,4.93
2019-02-08T09:37:38.043Z,4.13
2019-02-08T09:40:27.654Z,5.10
2019-02-08T09:43:15.407Z,5.47
2019-02-08T09:46:03.178Z,4.93
2019-02-08T09:48:49.134Z,4.93
2019-02-08T09:51:31.206Z,4.50
2019-02-08T09:54:12.249Z,4.17
2019-02-08T09:56:57.758Z,4.47
2019-02-08T09:59:44.402Z,4.57
2019-02-08T10:02:38.286Z,4.33
2019-02-08T10:05:24.994Z,5.27
2019-02-08T10:08:11.406Z,4.10
2019-02-08T10:10:57.997Z,4.13
2019-02-08T10:13:52.038Z,4.30
2019-02-08T10:16:38.721Z,5.43
2019-02-08T10:19:44.577Z,4.27
2019-02-08T10:22:31.219Z,4.90
2019-02-08T10:25:22.057Z,3.83
2019-02-08T10:28:02.867Z,4.10
2019-02-08T10:30:49.545Z,4.57
2019-02-08T10:33:35.977Z,3.67
2019-02-08T10:36:38.959Z,4.63
2019-02-08T10:39:15.294Z,4.40
2019-02-08T10:42:06.073Z,4.73
2019-02-08T10:45:06.174Z,4.27
2019-02-08T10:47:56.805Z,3.67
2019-02-08T10:51:02.894Z,3.40
2019-02-08T10:54:02.962Z,3.73
2019-02-08T10:56:49.143Z,4.53
2019-02-08T10:59:36.907Z,3.93
2019-02-08T11:02:36.833Z,4.20
2019-02-08T11:05:24.614Z,3.80
2019-02-08T11:07:57.794Z,3.77
2019-02-08T11:10:43.531Z,3.70
2019-02-08T11:13:46.311Z,3.30
2019-02-08T11:16:32.629Z,4.00
2019-02-08T11:19:09.298Z,3.40
2019-02-08T11:21:37.910Z,3.67
2019-02-08T11:24:06.909Z,3.00
2019-02-08T11:26:35.456Z,3.17
2019-02-08T11:29:04.011Z,3.40
2019-02-08T11:31:32.819Z,6.33
2019-02-08T11:34:01.372Z,3.70
2019-02-08T11:36:29.909Z,3.50
2019-02-08T11:38:58.605Z,3.43
2019-02-08T11:41:27.174Z,3.50
2019-02-08T11:43:55.858Z,3.13
2019-02-08T11:46:24.431Z,3.50
2019-02-08T11:48:53.032Z,3.23
2019-02-08T11:51:21.605Z,3.07
2019-02-08T11:53:50.178Z,2.63
2019-02-08T11:56:18.733Z,3.27
2019-02-08T11:58:47.280Z,3.50
2019-02-08T12:01:15.876Z,3.37
2019-02-08T12:03:44.458Z,3.23
2019-02-08T12:06:13.033Z,2.50
2019-02-08T12:08:41.602Z,2.90
2019-02-08T12:11:10.186Z,2.90
2019-02-08T12:13:38.739Z,3.00
2019-02-08T12:16:07.321Z,3.23
2019-02-08T12:18:35.865Z,3.33
2019-02-08T12:21:04.523Z,2.80
2019-02-08T12:23:33.141Z,3.10
2019-02-08T12:26:01.670Z,2.73
2019-02-08T12:28:31.793Z,3.40
2019-02-08T12:31:00.570Z,2.53
2019-02-08T12:33:29.130Z,2.53
2019-02-08T12:35:57.747Z,2.37
2019-02-08T12:38:26.282Z,2.73
2019-02-08T12:40:54.817Z,2.60
2019-02-08T12:43:23.381Z,3.73
2019-02-08T12:45:53.609Z,2.80
2019-02-08T12:48:22.131Z,2.57
2019-02-08T12:50:50.754Z,2.10
2019-02-08T12:53:19.857Z,2.83
2019-02-08T12:55:48.475Z,2.43
2019-02-08T12:58:17.097Z,2.83
2019-02-08T13:00:45.710Z,2.77
2019-02-08T13:03:14.350Z,2.83
2019-02-08T13:05:43.098Z,2.33
2019-02-08T13:08:15.148Z,3.17
2019-02-08T13:10:43.839Z,2.33
2019-02-08T13:13:12.402Z,2.70
2019-02-08T13:15:41.044Z,2.70
2019-02-08T13:18:09.654Z,3.17
2019-02-08T13:20:38.346Z,2.80
2019-02-08T13:23:09.326Z,2.63
2019-02-08T13:25:37.971Z,2.60
2019-02-08T13:28:06.671Z,2.70
2019-02-08T13:30:35.350Z,2.43
2019-02-08T13:33:03.903Z,2.40
2019-02-08T13:35:44.283Z,3.80
2019-02-08T13:38:12.836Z,2.43
2019-02-08T13:40:43.874Z,2.57
2019-02-08T13:43:15.282Z,2.67
2019-02-08T13:45:45.059Z,2.37
2019-02-08T13:48:13.597Z,2.67
2019-02-08T13:50:42.131Z,2.37
2019-02-08T13:53:11.075Z,2.57
2019-02-08T13:55:39.787Z,1.97
2019-02-08T13:58:08.346Z,2.67
2019-02-08T14:00:38.969Z,2.03
2019-02-08T14:03:07.836Z,2.63
2019-02-08T14:05:36.494Z,3.10
2019-02-08T14:08:07.917Z,2.43
2019-02-08T14:10:36.850Z,3.10
2019-02-08T14:13:05.512Z,3.00
2019-02-08T14:15:35.554Z,4.43
2019-02-08T14:18:09.701Z,3.07
2019-02-08T14:20:38.314Z,2.60
2019-02-08T14:23:08.757Z,4.90
2019-02-08T14:25:37.363Z,3.10
2019-02-08T14:28:05.882Z,4.77
2019-02-08T14:30:35.633Z,4.20
2019-02-08T14:33:04.229Z,3.27
2019-02-08T14:35:32.844Z,3.33
2019-02-08T14:38:01.544Z,3.00
2019-02-08T14:40:30.153Z,2.50
2019-02-08T14:42:58.738Z,2.13
2019-02-08T14:45:27.814Z,3.57
2019-02-08T14:47:56.478Z,3.37
2019-02-08T14:50:25.955Z,2.80
2019-02-08T14:52:56.950Z,3.20
2019-02-08T14:55:25.533Z,3.37
2019-02-08T14:57:54.546Z,4.23
2019-02-08T15:00:23.122Z,4.13
2019-02-08T15:03:15.028Z,3.30
2019-02-08T15:05:43.598Z,3.80
2019-02-08T15:08:12.172Z,4.57
2019-02-08T15:10:42.269Z,2.10
2019-02-08T15:13:10.804Z,2.63
2019-02-08T15:15:39.346Z,2.80
2019-02-08T15:18:07.925Z,2.73
2019-02-08T15:20:36.577Z,2.63
2019-02-08T15:23:05.106Z,3.43
2019-02-08T15:25:33.701Z,2.83
2019-02-08T15:28:02.264Z,3.50
2019-02-08T15:30:31.212Z,2.70
2019-02-08T15:32:59.788Z,3.17
2019-02-08T15:35:28.358Z,4.43
2019-02-08T15:37:57.006Z,4.90
2019-02-08T15:40:44.758Z,5.53
2019-02-08T15:43:13.793Z,2.73
2019-02-08T15:45:43.523Z,2.57
2019-02-08T15:48:12.135Z,2.50
2019-02-08T15:50:40.750Z,2.27
2019-02-08T15:53:09.389Z,2.27
2019-02-08T15:55:38.551Z,3.30
2019-02-08T15:58:07.081Z,2.27
2019-02-08T16:00:35.708Z,2.40
2019-02-08T16:03:04.341Z,3.23
2019-02-08T16:05:32.937Z,2.07
2019-02-08T16:08:01.642Z,2.83
2019-02-08T16:10:30.186Z,3.90
2019-02-08T16:12:58.718Z,2.73
2019-02-08T16:15:27.442Z,2.57
2019-02-08T16:17:55.989Z,2.63
2019-02-08T16:20:25.091Z,3.37
2019-02-08T16:22:53.653Z,2.07
2019-02-08T16:25:22.594Z,2.73
2019-02-08T16:27:51.122Z,3.00
2019-02-08T16:30:20.729Z,3.73
2019-02-08T16:32:49.321Z,2.83
2019-02-08T16:35:19.845Z,2.47
2019-02-08T16:37:48.606Z,4.33
2019-02-08T16:40:18.166Z,3.10
2019-02-08T16:42:46.706Z,4.47
2019-02-08T16:45:16.906Z,2.93
2019-02-08T16:47:45.437Z,4.23
2019-02-08T16:50:15.266Z,5.80
2019-02-08T16:52:43.841Z,4.13
2019-02-08T16:55:12.414Z,5.73
2019-02-08T16:57:47.647Z,5.97
2019-02-08T17:00:12.933Z,5.90
2019-02-08T17:02:41.491Z,6.00
2019-02-08T17:05:10.902Z,2.80
2019-02-08T17:07:39.481Z,4.27
2019-02-08T17:10:08.757Z,3.47
2019-02-08T17:12:37.305Z,4.07
2019-02-08T17:15:06.177Z,5.10
2019-02-08T17:17:34.724Z,4.83
2019-02-08T17:20:03.254Z,3.70
2019-02-08T17:22:31.799Z,3.73
2019-02-08T17:25:00.368Z,3.07
2019-02-08T17:27:28.902Z,3.90
2019-02-08T17:29:57.437Z,4.33
2019-02-08T17:32:25.990Z,4.40
2019-02-08T17:34:54.535Z,3.40
2019-02-08T17:37:23.069Z,2.97
2019-02-08T17:39:51.636Z,4.73
2019-02-08T17:42:20.170Z,3.20
2019-02-08T17:44:48.750Z,2.70
2019-02-08T17:47:17.314Z,3.23
2019-02-08T17:49:45.853Z,3.87
2019-02-08T17:52:14.390Z,2.33
2019-02-08T17:54:42.947Z,3.53
2019-02-08T17:57:11.470Z,4.77
2019-02-08T17:59:40.000Z,4.50
2019-02-08T18:02:08.549Z,4.37
2019-02-08T18:04:37.083Z,4.53
2019-02-08T18:07:05.713Z,4.00
2019-02-08T18:09:34.253Z,4.03
2019-02-08T18:12:02.820Z,3.57
2019-02-08T18:14:31.374Z,4.30
2019-02-08T18:16:59.909Z,5.10
2019-02-08T18:19:28.452Z,3.07
2019-02-08T18:21:57.010Z,3.30
2019-02-08T18:24:25.545Z,3.63
2019-02-08T18:26:54.076Z,3.37
2019-02-08T18:29:22.665Z,3.07
2019-02-08T18:31:51.190Z,4.40
2019-02-08T18:34:19.746Z,4.70
2019-02-08T18:36:48.306Z,3.13
2019-02-08T18:39:16.861Z,2.43
2019-02-08T18:41:45.389Z,6.17
2019-02-08T18:44:13.941Z,5.30
2019-02-08T18:46:42.477Z,4.37
2019-02-08T18:49:11.024Z,3.07
2019-02-08T18:51:39.610Z,3.50
2019-02-08T18:54:08.153Z,3.17
2019-02-08T18:56:36.694Z,4.63
2019-02-08T18:59:05.261Z,3.27
2019-02-08T19:01:33.870Z,3.70
2019-02-08T19:04:02.414Z,3.97
2019-02-08T19:06:30.960Z,3.53
2019-02-08T19:08:59.537Z,3.17
2019-02-08T19:11:28.078Z,5.37
2019-02-08T19:13:56.622Z,4.47
2019-02-08T19:16:25.142Z,5.73
2019-02-08T19:18:53.746Z,5.57
2019-02-08T19:21:22.310Z,5.03
2019-02-08T19:23:50.847Z,4.60
2019-02-08T19:26:19.401Z,3.70
2019-02-08T19:28:47.961Z,5.73
2019-02-08T19:31:16.506Z,7.30
2019-02-08T19:33:45.073Z,7.97
2019-02-08T19:36:13.605Z,6.17
2019-02-08T19:38:42.140Z,7.10
2019-02-08T19:41:10.705Z,4.70
2019-02-08T19:43:39.238Z,7.37
2019-02-08T19:46:07.785Z,3.70
2019-02-08T19:48:36.339Z,3.33
2019-02-08T19:51:05.002Z,2.97
2019-02-08T19:53:33.566Z,3.83
2019-02-08T19:56:02.160Z,4.60
2019-02-08T19:58:34.624Z,3.50
2019-02-08T20:01:00.989Z,2.57
2019-02-08T20:03:29.533Z,4.33
2019-02-08T20:05:58.094Z,4.10
2019-02-08T20:08:26.641Z,5.87
2019-02-08T20:10:55.165Z,4.80
2019-02-08T20:13:23.729Z,3.60
2019-02-08T20:15:52.289Z,2.83
2019-02-08T20:18:20.832Z,3.10
2019-02-08T20:20:49.407Z,3.67
2019-02-08T20:23:17.941Z,3.40
2019-02-08T20:25:46.515Z,2.30
2019-02-08T20:28:15.100Z,2.63
2019-02-08T20:30:43.640Z,3.00
2019-02-08T20:33:12.169Z,2.87
2019-02-08T20:35:40.734Z,2.13
2019-02-08T20:38:09.445Z,2.73
2019-02-08T20:40:39.252Z,2.77
2019-02-08T20:43:07.842Z,2.60
2019-02-08T20:45:36.357Z,2.90
2019-02-08T20:48:09.105Z,3.00
2019-02-08T20:50:38.940Z,3.10
2019-02-08T20:53:07.540Z,2.57
2019-02-08T20:55:36.070Z,2.93
2019-02-08T20:58:04.630Z,2.23
2019-02-08T21:00:37.711Z,2.77
2019-02-08T21:03:07.645Z,2.70
2019-02-08T21:05:36.178Z,2.80
2019-02-08T21:08:05.475Z,3.13
2019-02-08T21:10:34.099Z,3.03
2019-02-08T21:13:02.631Z,2.50
2019-02-08T21:15:31.185Z,3.70
2019-02-08T21:17:59.721Z,3.20
2019-02-08T21:20:28.259Z,3.33
2019-02-08T21:22:56.858Z,3.03
2019-02-08T21:25:26.569Z,3.23
2019-02-08T21:27:55.148Z,2.43
2019-02-08T21:30:23.708Z,2.93
2019-02-08T21:32:52.265Z,3.17
2019-02-08T21:35:20.814Z,3.07
2019-02-08T21:37:49.390Z,4.23
2019-02-08T21:40:18.882Z,3.67
2019-02-08T21:42:47.421Z,2.23
2019-02-08T21:45:20.158Z,2.57
2019-02-08T21:47:49.198Z,3.27
2019-02-08T21:50:17.799Z,2.33
2019-02-08T21:52:46.352Z,2.93
2019-02-08T21:55:15.185Z,3.10
2019-02-08T21:57:43.713Z,2.77
2019-02-08T22:00:16.294Z,2.97
2019-02-08T22:02:44.823Z,2.70
2019-02-08T22:05:13.360Z,4.47
2019-02-08T22:07:41.914Z,4.37
2019-02-08T22:10:10.862Z,4.63
2019-02-08T22:12:39.394Z,3.37
2019-02-08T22:15:09.616Z,3.10
2019-02-08T22:17:38.143Z,3.03
2019-02-08T22:20:07.279Z,3.27
2019-02-08T22:22:35.819Z,2.73
2019-02-08T22:25:04.835Z,2.97
2019-02-08T22:27:33.373Z,3.23
2019-02-08T22:30:01.910Z,2.60
2019-02-08T22:32:30.470Z,3.43
2019-02-08T22:34:59.019Z,3.27
2019-02-08T22:37:27.547Z,3.37
2019-02-08T22:39:56.110Z,2.77
2019-02-08T22:42:24.653Z,2.50
2019-02-08T22:44:53.199Z,3.00
2019-02-08T22:47:21.766Z,3.50
2019-02-08T22:49:50.314Z,2.47
2019-02-08T22:52:18.850Z,2.87
2019-02-08T22:54:47.509Z,3.00
2019-02-08T22:57:16.066Z,2.77
2019-02-08T22:59:44.590Z,2.33
2019-02-08T23:02:13.179Z,2.97
2019-02-08T23:04:41.786Z,2.90
2019-02-08T23:07:10.338Z,2.20
2019-02-08T23:09:38.883Z,2.60
2019-02-08T23:12:07.415Z,2.80
2019-02-08T23:14:35.973Z,3.23
2019-02-08T23:17:04.509Z,2.60
2019-02-08T23:19:33.061Z,3.43
2019-02-08T23:22:01.614Z,3.00
2019-02-08T23:24:30.177Z,2.40
2019-02-08T23:26:58.706Z,3.10
2019-02-08T23:29:30.160Z,2.93
2019-02-08T23:31:57.561Z,2.70
2019-02-08T23:34:26.138Z,2.67
2019-02-08T23:36:54.706Z,3.13
2019-02-08T23:39:23.254Z,2.63
2019-02-08T23:41:51.810Z,1.90
2019-02-08T23:44:20.444Z,2.87
2019-02-08T23:46:48.973Z,2.37
2019-02-08T23:49:17.501Z,2.60
2019-02-08T23:51:46.070Z,3.23
2019-02-08T23:54:14.594Z,2.97
2019-02-08T23:56:43.138Z,2.07
2019-02-08T23:59:11.685Z,2.67
